Terminal Aerodrome Forecast
Issued by NWS Cleveland, OH

Home | Current Version | Previous Version | Graphics & Text | Print | Product List | Glossary On
Versions: 1 2 3 4 5 6 7 8 9 10 11 12 13 14 15 16 17
948
FTUS41 KCLE 220538
TAFTOL
TAF
KTOL 220538Z 2206/2306 13004KT P6SM SCT060 BKN100
     FM221100 18005KT P6SM VCSH BKN060 OVC100
     FM221400 22008KT P6SM SCT060 BKN120
     FM221700 22014G22KT P6SM BKN120
     FM230000 23010KT P6SM BKN080=

USA.gov is the U.S. government's official web portal to all federal, state and local government web resources and services.